North Tisbury, Massachusetts
Current Conditions -  °F | °C
As of 8:53 AM on Saturday 22 Nov 2014 (Local Time) from KMVY Reporting Station
Clear Clear  
Wind Chill: 28°   Ceiling: Unl
Heat Index: 36°   Visibility: 10mi
Dew Point: 16°   Wind: 12mph
Humidity: 44%   Direction: 270°W
Pressure: 30.44"   Gusts: 23mph
Location:  41.4442°N, 70.5999°W
Report Text: KMVY 221353Z 27010G20KT 240V310 10SM CLR 02/M09 A3044 RMK AO2 SLP309 T00221089
Loading
Personal Weather Stations






























Interactive Weather Map New forecast layout! Learn more

10-Day Weather Forecast

Advertisements
Track Severe Weather on mobile